createdAt,value
2018-07-23T00:00:39.456Z,19.50
2018-07-23T00:05:30.339Z,19.40
2018-07-23T00:10:21.300Z,19.40
2018-07-23T00:15:12.214Z,19.30
2018-07-23T00:20:03.100Z,19.30
2018-07-23T00:24:54.052Z,19.30
2018-07-23T00:29:44.949Z,19.20
2018-07-23T00:34:35.897Z,19.20
2018-07-23T00:39:26.826Z,19.20
2018-07-23T00:44:17.714Z,19.10
2018-07-23T00:49:08.599Z,19.10
2018-07-23T00:53:59.556Z,19.10
2018-07-23T00:58:50.456Z,19.10
2018-07-23T01:03:41.386Z,19.00
2018-07-23T01:08:32.345Z,19.00
2018-07-23T01:13:23.986Z,18.90
2018-07-23T01:18:15.688Z,18.90
2018-07-23T01:23:06.625Z,18.80
2018-07-23T01:27:57.557Z,18.80
2018-07-23T01:32:48.449Z,18.80
2018-07-23T01:37:39.368Z,18.70
2018-07-23T01:42:30.260Z,18.70
2018-07-23T01:47:21.171Z,18.70
2018-07-23T01:52:12.064Z,18.60
2018-07-23T01:57:03.693Z,18.60
2018-07-23T02:01:55.365Z,18.50
2018-07-23T02:06:46.254Z,18.50
2018-07-23T02:11:37.901Z,18.50
2018-07-23T02:16:28.787Z,18.40
2018-07-23T02:21:19.855Z,18.40
2018-07-23T02:26:10.764Z,18.40
2018-07-23T02:31:01.670Z,18.30
2018-07-23T02:35:53.356Z,18.30
2018-07-23T02:40:44.260Z,18.20
2018-07-23T02:45:35.186Z,18.20
2018-07-23T02:50:26.096Z,18.20
2018-07-23T02:55:17.052Z,18.10
2018-07-23T03:00:07.957Z,18.10
2018-07-23T03:04:58.892Z,18.00
2018-07-23T03:09:49.898Z,18.00
2018-07-23T03:14:40.800Z,17.90
2018-07-23T03:19:31.693Z,17.90
2018-07-23T03:24:22.602Z,17.90
2018-07-23T03:29:13.491Z,17.80
2018-07-23T03:34:04.476Z,17.80
2018-07-23T03:38:55.356Z,17.70
2018-07-23T03:43:46.992Z,17.60
2018-07-23T03:48:37.956Z,17.60
2018-07-23T03:53:28.839Z,17.60
2018-07-23T03:58:19.784Z,17.60
2018-07-23T04:03:10.710Z,17.50
2018-07-23T04:08:01.595Z,17.50
2018-07-23T04:12:52.539Z,17.50
2018-07-23T04:17:43.467Z,17.50
2018-07-23T04:22:34.362Z,17.50
2018-07-23T04:27:25.313Z,17.50
2018-07-23T04:32:16.236Z,17.50
2018-07-23T04:37:07.243Z,17.50
2018-07-23T04:41:58.136Z,17.50
2018-07-23T04:46:49.097Z,17.50
2018-07-23T04:51:40.005Z,17.50
2018-07-23T04:56:30.975Z,17.50
2018-07-23T05:01:21.848Z,17.60
2018-07-23T05:06:12.760Z,17.60
2018-07-23T05:11:03.681Z,17.60
2018-07-23T05:15:54.638Z,17.70
2018-07-23T05:20:46.324Z,17.70
2018-07-23T05:25:37.231Z,17.70
2018-07-23T05:30:28.165Z,17.80
2018-07-23T05:35:19.052Z,17.80
2018-07-23T05:40:09.960Z,17.90
2018-07-23T05:45:00.989Z,18.00
2018-07-23T05:49:51.875Z,18.00
2018-07-23T05:54:43.577Z,18.20
2018-07-23T05:59:34.486Z,18.20
2018-07-23T06:04:25.403Z,18.30
2018-07-23T06:09:16.279Z,18.40
2018-07-23T06:14:07.921Z,18.60
2018-07-23T06:18:58.815Z,18.60
2018-07-23T06:23:49.729Z,18.70
2018-07-23T06:28:40.732Z,18.80
2018-07-23T06:33:31.622Z,18.90
2018-07-23T06:38:22.516Z,18.90
2018-07-23T06:43:13.453Z,19.00
2018-07-23T06:48:04.346Z,19.10
2018-07-23T06:52:56.091Z,19.30
2018-07-23T06:57:46.992Z,19.30
2018-07-23T07:02:38.642Z,19.60
2018-07-23T07:07:29.613Z,19.50
2018-07-23T07:12:20.514Z,19.70
2018-07-23T07:17:11.450Z,19.80
2018-07-23T07:22:02.343Z,19.90
2018-07-23T07:26:53.242Z,20.00
2018-07-23T07:31:44.143Z,20.20
2018-07-23T07:36:35.771Z,20.60
2018-07-23T07:41:27.403Z,20.80
2018-07-23T07:46:18.331Z,20.70
2018-07-23T07:51:09.960Z,21.10
2018-07-23T07:56:01.653Z,21.30
2018-07-23T08:00:52.548Z,21.30
2018-07-23T08:05:43.462Z,21.50
2018-07-23T08:10:34.364Z,21.60
2018-07-23T08:15:26.016Z,21.90
2018-07-23T08:20:16.913Z,21.90
2018-07-23T08:25:08.582Z,22.10
2018-07-23T08:30:00.232Z,22.20
2018-07-23T08:34:51.176Z,22.20
2018-07-23T08:39:42.118Z,22.30
2018-07-23T08:44:33.876Z,22.50
2018-07-23T08:54:42.588Z,22.50
2018-07-23T08:59:33.508Z,22.70
2018-07-23T09:04:24.535Z,22.70
2018-07-23T09:09:15.499Z,22.80
2018-07-23T09:14:06.434Z,22.80
2018-07-23T09:18:57.335Z,22.90
2018-07-23T09:23:49.052Z,23.00
2018-07-23T09:28:39.926Z,23.00
2018-07-23T09:33:30.824Z,23.00
2018-07-23T09:38:21.707Z,23.10
2018-07-23T09:43:13.338Z,23.20
2018-07-23T09:48:04.223Z,23.20
2018-07-23T09:52:55.143Z,23.20
2018-07-23T09:57:46.042Z,23.30
2018-07-23T10:50:52.818Z,23.40
2018-07-23T10:55:43.734Z,24.20
2018-07-23T11:00:34.641Z,24.40
2018-07-23T11:05:25.561Z,24.60
2018-07-23T11:10:16.475Z,24.80
2018-07-23T11:15:08.222Z,25.20
2018-07-23T11:19:59.167Z,25.20
2018-07-23T11:24:50.061Z,25.50
2018-07-23T11:29:41.029Z,25.80
2018-07-23T11:34:31.966Z,26.10
2018-07-23T11:39:23.816Z,26.80
2018-07-23T11:44:14.709Z,26.80
2018-07-23T11:49:05.615Z,27.20
2018-07-23T11:53:56.549Z,27.50
2018-07-23T11:58:47.452Z,27.80
2018-07-23T12:03:38.389Z,28.20
2018-07-23T12:08:29.315Z,28.60
2018-07-23T12:13:20.312Z,29.00
2018-07-23T12:18:11.218Z,29.30
2018-07-23T12:23:02.142Z,29.70
2018-07-23T12:27:53.072Z,30.10
2018-07-23T12:32:43.985Z,30.40
2018-07-23T12:37:34.920Z,30.80
2018-07-23T12:42:25.934Z,31.10
2018-07-23T12:47:16.870Z,31.50
2018-07-23T12:52:09.292Z,32.10
2018-07-23T12:57:00.234Z,32.00
2018-07-23T13:01:51.163Z,32.30
2018-07-23T13:06:42.065Z,32.50
2018-07-23T13:11:32.978Z,32.70
2018-07-23T13:16:23.869Z,32.70
2018-07-23T13:21:14.782Z,32.70
2018-07-23T13:26:05.696Z,32.50
2018-07-23T13:30:56.612Z,32.30
2018-07-23T13:35:47.530Z,32.20
2018-07-23T13:40:38.506Z,32.00
2018-07-23T13:45:29.641Z,31.90
2018-07-23T13:50:21.365Z,31.60
2018-07-23T13:55:12.304Z,31.50
2018-07-23T14:00:03.957Z,31.20
2018-07-23T14:04:54.866Z,31.20
2018-07-23T14:09:45.844Z,31.10
2018-07-23T14:14:36.749Z,31.00
2018-07-23T14:19:27.688Z,31.10
2018-07-23T14:24:18.728Z,31.10
2018-07-23T14:29:09.640Z,31.30
2018-07-23T14:34:00.683Z,31.40
2018-07-23T14:38:52.324Z,31.90
2018-07-23T14:43:44.072Z,32.00
2018-07-23T14:48:34.974Z,32.00
2018-07-23T14:53:26.689Z,32.30
2018-07-23T14:58:19.067Z,32.40
2018-07-23T15:03:10.757Z,32.50
2018-07-23T15:08:02.445Z,32.60
2018-07-23T15:12:53.416Z,32.50
2018-07-23T15:17:44.333Z,32.60
2018-07-23T15:22:35.244Z,32.60
2018-07-23T15:27:26.201Z,32.60
2018-07-23T15:32:17.213Z,32.50
2018-07-23T15:37:08.116Z,32.50
2018-07-23T15:41:59.022Z,32.50
2018-07-23T15:46:49.944Z,32.30
2018-07-23T15:51:40.867Z,32.30
2018-07-23T15:56:31.762Z,32.10
2018-07-23T16:01:22.686Z,31.90
2018-07-23T16:06:13.632Z,31.60
2018-07-23T16:11:04.523Z,31.40
2018-07-23T16:15:55.423Z,31.20
2018-07-23T16:20:46.315Z,31.00
2018-07-23T16:25:37.959Z,30.60
2018-07-23T16:30:29.601Z,30.30
2018-07-23T16:35:20.645Z,30.30
2018-07-23T16:40:11.552Z,30.10
2018-07-23T16:45:02.450Z,29.90
2018-07-23T16:49:53.342Z,29.80
2018-07-23T16:54:44.995Z,29.40
2018-07-23T16:59:36.626Z,29.20
2018-07-23T17:04:28.334Z,29.00
2018-07-23T17:09:19.262Z,29.00
2018-07-23T17:14:10.263Z,28.80
2018-07-23T17:19:01.179Z,28.70
2018-07-23T17:23:52.104Z,28.50
2018-07-23T17:28:43.029Z,28.30
2018-07-23T17:33:33.919Z,28.20
2018-07-23T17:38:24.823Z,28.10
2018-07-23T17:43:15.795Z,27.90
2018-07-23T17:48:07.439Z,27.60
2018-07-23T17:52:58.435Z,27.60
2018-07-23T17:57:49.389Z,27.50
2018-07-23T18:02:41.040Z,27.20
2018-07-23T18:07:32.013Z,27.20
2018-07-23T18:12:22.903Z,27.10
2018-07-23T18:17:13.839Z,26.90
2018-07-23T18:22:04.734Z,26.80
2018-07-23T18:26:55.667Z,26.70
2018-07-23T18:31:46.552Z,26.60
2018-07-23T18:36:37.513Z,26.40
2018-07-23T18:41:28.401Z,26.30
2018-07-23T18:46:19.287Z,26.20
2018-07-23T18:51:10.245Z,26.00
2018-07-23T18:56:01.131Z,25.90
2018-07-23T19:00:52.811Z,25.60
2018-07-23T19:05:43.749Z,25.60
2018-07-23T19:10:34.690Z,25.50
2018-07-23T19:15:27.076Z,25.10
2018-07-23T19:20:18.872Z,25.10
2018-07-23T19:25:09.955Z,25.00
2018-07-23T19:30:03.144Z,24.80
2018-07-23T19:34:54.032Z,24.60
2018-07-23T19:39:44.987Z,24.50
2018-07-23T19:44:35.907Z,24.30
2018-07-23T19:49:26.813Z,24.20
2018-07-23T19:54:17.720Z,24.00
2018-07-23T19:59:08.621Z,23.80
2018-07-23T20:03:59.507Z,23.70
2018-07-23T20:08:50.397Z,23.50
2018-07-23T20:13:41.357Z,23.40
2018-07-23T20:18:33.008Z,23.10
2018-07-23T20:23:23.913Z,23.00
2018-07-23T20:28:15.623Z,22.80
2018-07-23T20:33:06.610Z,22.70
2018-07-23T20:37:58.007Z,22.60
2018-07-23T20:42:48.891Z,22.50
2018-07-23T20:47:39.788Z,22.40
2018-07-23T20:52:30.722Z,22.20
2018-07-23T20:57:21.623Z,22.10
2018-07-23T21:02:12.509Z,21.90
2018-07-23T21:07:03.536Z,21.80
2018-07-23T21:11:54.497Z,21.70
2018-07-23T21:16:45.388Z,21.60
2018-07-23T21:21:36.291Z,21.40
2018-07-23T21:26:28.212Z,21.30
2018-07-23T21:31:21.330Z,21.10
2018-07-23T21:36:13.755Z,21.10
2018-07-23T21:41:05.446Z,20.90
2018-07-23T21:45:56.367Z,20.90
2018-07-23T21:50:47.371Z,20.80
2018-07-23T21:55:38.317Z,20.70
2018-07-23T22:00:29.210Z,20.60
2018-07-23T22:05:20.115Z,20.50
2018-07-23T22:10:11.007Z,20.40
2018-07-23T22:15:01.896Z,20.30
2018-07-23T22:19:52.899Z,20.20
2018-07-23T22:24:43.791Z,20.10
2018-07-23T22:29:34.675Z,20.00
2018-07-23T22:34:26.292Z,19.80
2018-07-23T22:39:17.954Z,19.70
2018-07-23T22:44:08.856Z,19.70
2018-07-23T22:49:00.539Z,19.60
2018-07-23T22:53:51.439Z,19.50
2018-07-23T22:58:42.356Z,19.50
2018-07-23T23:03:33.306Z,19.40
2018-07-23T23:08:24.229Z,19.30
2018-07-23T23:13:15.130Z,19.20
2018-07-23T23:18:06.055Z,19.20
2018-07-23T23:22:56.956Z,19.10
2018-07-23T23:27:47.903Z,19.00
2018-07-23T23:32:38.784Z,19.00
2018-07-23T23:37:29.677Z,18.90
2018-07-23T23:42:21.368Z,18.70
2018-07-23T23:47:12.271Z,18.70
2018-07-23T23:52:03.151Z,18.70
2018-07-23T23:56:54.796Z,18.60
